createdAt,value
2023-04-02T00:00:19.538Z,9.76
2023-04-02T00:03:09.665Z,9.66
2023-04-02T00:05:58.194Z,9.60
2023-04-02T00:08:48.853Z,9.58
2023-04-02T00:11:39.842Z,9.52
2023-04-02T00:14:30.752Z,9.31
2023-04-02T00:17:19.965Z,9.55
2023-04-02T00:20:10.089Z,9.57
2023-04-02T00:22:58.721Z,9.50
2023-04-02T00:25:48.531Z,9.53
2023-04-02T00:28:36.984Z,9.51
2023-04-02T00:31:26.148Z,9.53
2023-04-02T00:34:19.333Z,9.49
2023-04-02T00:37:07.881Z,9.44
2023-04-02T00:39:59.912Z,9.48
2023-04-02T00:42:51.036Z,9.46
2023-04-02T00:45:39.773Z,9.48
2023-04-02T00:48:39.065Z,9.38
2023-04-02T00:51:31.548Z,8.96
2023-04-02T00:54:22.416Z,9.30
2023-04-02T00:57:17.864Z,9.33
2023-04-02T01:00:22.929Z,9.44
2023-04-02T01:03:36.353Z,9.39
2023-04-02T01:06:29.600Z,9.46
2023-04-02T01:09:26.654Z,9.52
2023-04-02T01:12:49.722Z,9.58
2023-04-02T01:15:42.781Z,9.55
2023-04-02T01:18:39.769Z,9.50
2023-04-02T01:21:52.881Z,9.41
2023-04-02T01:24:44.000Z,9.40
2023-04-02T01:27:37.556Z,9.42
2023-04-02T01:30:28.113Z,9.45
2023-04-02T01:33:16.592Z,9.42
2023-04-02T01:36:10.520Z,9.42
2023-04-02T01:39:05.180Z,9.27
2023-04-02T01:41:59.414Z,9.60
2023-04-02T01:44:49.530Z,9.40
2023-04-02T01:47:40.589Z,9.25
2023-04-02T01:50:32.112Z,9.51
2023-04-02T01:53:22.229Z,9.50
2023-04-02T01:56:10.990Z,9.47
2023-04-02T01:58:59.865Z,9.27
2023-04-02T02:01:51.908Z,9.61
2023-04-02T02:04:42.168Z,9.60
2023-04-02T02:07:30.970Z,9.47
2023-04-02T02:10:24.663Z,9.43
2023-04-02T02:13:15.933Z,9.45
2023-04-02T02:16:05.502Z,9.45
2023-04-02T02:18:56.615Z,9.37
2023-04-02T02:21:48.542Z,9.44
2023-04-02T02:24:37.447Z,9.48
2023-04-02T02:27:44.722Z,9.50
2023-04-02T02:30:36.899Z,9.51
2023-04-02T02:33:27.079Z,9.53
2023-04-02T02:36:20.050Z,9.26
2023-04-02T02:39:14.726Z,9.41
2023-04-02T02:42:07.983Z,9.35
2023-04-02T02:44:58.616Z,9.34
2023-04-02T02:47:47.376Z,9.27
2023-04-02T02:50:36.943Z,9.23
2023-04-02T02:53:26.466Z,8.87
2023-04-02T02:56:16.623Z,9.20
2023-04-02T02:59:07.299Z,9.12
2023-04-02T03:01:55.712Z,9.02
2023-04-02T03:04:48.446Z,9.02
2023-04-02T03:07:37.376Z,8.95
2023-04-02T03:10:33.171Z,8.99
2023-04-02T03:13:24.850Z,9.06
2023-04-02T03:16:17.295Z,9.08
2023-04-02T03:19:10.768Z,9.00
2023-04-02T03:22:04.253Z,9.01
2023-04-02T03:24:56.991Z,9.04
2023-04-02T03:27:47.638Z,9.04
2023-04-02T03:30:42.695Z,8.99
2023-04-02T03:33:33.678Z,9.02
2023-04-02T03:36:28.516Z,9.03
2023-04-02T03:39:21.754Z,8.99
2023-04-02T03:42:15.552Z,9.00
2023-04-02T03:45:06.640Z,8.95
2023-04-02T03:47:59.497Z,8.92
2023-04-02T03:50:52.215Z,8.91
2023-04-02T03:53:40.700Z,8.93
2023-04-02T03:56:31.660Z,8.92
2023-04-02T03:59:25.672Z,8.97
2023-04-02T04:02:20.941Z,9.03
2023-04-02T04:05:20.868Z,9.06
2023-04-02T04:08:15.411Z,9.09
2023-04-02T04:11:08.942Z,8.99
2023-04-02T04:14:00.804Z,8.98
2023-04-02T04:16:53.656Z,9.06
2023-04-02T04:19:45.515Z,9.11
2023-04-02T04:22:35.682Z,9.09
2023-04-02T04:25:29.501Z,8.89
2023-04-02T04:28:24.139Z,8.98
2023-04-02T04:31:20.965Z,9.01
2023-04-02T04:34:16.422Z,8.77
2023-04-02T04:37:07.806Z,9.01
2023-04-02T04:39:59.495Z,8.39
2023-04-02T04:42:49.500Z,9.01
2023-04-02T04:45:42.413Z,9.00
2023-04-02T04:48:36.342Z,9.01
2023-04-02T04:51:28.920Z,8.77
2023-04-02T04:54:18.541Z,9.08
2023-04-02T04:57:22.730Z,8.94
2023-04-02T05:00:15.741Z,9.03
2023-04-02T05:03:10.173Z,9.09
2023-04-02T05:06:04.364Z,8.78
2023-04-02T05:08:53.908Z,9.11
2023-04-02T05:11:45.679Z,9.07
2023-04-02T05:14:38.740Z,9.15
2023-04-02T05:17:30.800Z,9.06
2023-04-02T05:20:23.489Z,9.13
2023-04-02T05:23:16.947Z,9.25
2023-04-02T05:26:07.962Z,9.16
2023-04-02T05:28:59.383Z,9.03
2023-04-02T05:31:54.745Z,9.20
2023-04-02T05:34:47.098Z,9.24
2023-04-02T05:37:35.780Z,9.22
2023-04-02T05:40:28.628Z,9.22
2023-04-02T05:43:19.278Z,9.33
2023-04-02T05:46:16.912Z,9.26
2023-04-02T05:49:11.794Z,9.22
2023-04-02T05:52:02.007Z,9.26
2023-04-02T05:54:54.365Z,9.24
2023-04-02T05:57:56.608Z,9.19
2023-04-02T06:01:04.332Z,9.13
2023-04-02T06:03:57.486Z,9.26
2023-04-02T06:06:56.391Z,8.64
2023-04-02T06:09:48.127Z,9.27
2023-04-02T06:12:40.670Z,9.32
2023-04-02T06:15:29.203Z,9.35
2023-04-02T06:18:20.380Z,9.24
2023-04-02T06:21:10.848Z,9.33
2023-04-02T06:24:03.337Z,9.03
2023-04-02T06:26:56.178Z,9.35
2023-04-02T06:29:45.925Z,9.41
2023-04-02T06:32:34.634Z,9.41
2023-04-02T06:35:23.181Z,9.50
2023-04-02T06:38:17.189Z,9.54
2023-04-02T06:41:13.143Z,9.52
2023-04-02T06:44:04.516Z,9.63
2023-04-02T06:46:55.315Z,9.55
2023-04-02T06:49:48.225Z,9.21
2023-04-02T06:52:39.741Z,9.68
2023-04-02T06:55:33.436Z,9.28
2023-04-02T06:58:23.646Z,9.84
2023-04-02T07:01:16.749Z,9.92
2023-04-02T07:04:05.782Z,9.90
2023-04-02T07:06:54.329Z,9.94
2023-04-02T07:09:43.095Z,9.86
2023-04-02T07:12:31.528Z,9.74
2023-04-02T07:15:23.702Z,9.90
2023-04-02T07:18:23.407Z,9.94
2023-04-02T07:21:12.039Z,9.89
2023-04-02T07:24:00.635Z,9.80
2023-04-02T07:26:49.174Z,9.93
2023-04-02T07:29:42.447Z,9.97
2023-04-02T07:32:32.312Z,9.97
2023-04-02T07:35:20.845Z,9.43
2023-04-02T07:38:09.639Z,10.05
2023-04-02T07:40:58.148Z,10.09
2023-04-02T07:43:46.605Z,10.15
2023-04-02T07:46:35.121Z,10.22
2023-04-02T07:49:25.010Z,10.21
2023-04-02T07:52:13.490Z,10.24
2023-04-02T07:55:02.755Z,10.20
2023-04-02T07:57:53.042Z,10.31
2023-04-02T08:00:41.537Z,10.38
2023-04-02T08:03:30.284Z,10.43
2023-04-02T08:06:20.724Z,10.48
2023-04-02T08:09:09.242Z,10.56
2023-04-02T08:11:57.793Z,10.58
2023-04-02T08:14:46.259Z,10.59
2023-04-02T08:17:34.721Z,10.63
2023-04-02T08:20:23.676Z,10.75
2023-04-02T08:23:18.096Z,10.84
2023-04-02T08:26:07.336Z,10.80
2023-04-02T08:28:55.877Z,10.93
2023-04-02T08:31:44.391Z,10.88
2023-04-02T08:34:32.907Z,10.92
2023-04-02T08:37:21.547Z,10.98
2023-04-02T08:40:19.958Z,10.98
2023-04-02T08:43:18.272Z,10.81
2023-04-02T08:46:11.516Z,11.05
2023-04-02T08:49:02.183Z,11.20
2023-04-02T08:51:50.780Z,11.30
2023-04-02T08:54:43.577Z,11.44
2023-04-02T08:57:38.009Z,11.57
2023-04-02T09:00:37.936Z,11.52
2023-04-02T09:03:30.345Z,11.63
2023-04-02T09:06:20.901Z,11.66
2023-04-02T09:09:09.811Z,11.73
2023-04-02T09:12:01.253Z,11.78
2023-04-02T09:14:59.784Z,11.70
2023-04-02T09:17:54.199Z,11.84
2023-04-02T09:20:43.615Z,11.90
2023-04-02T09:23:32.083Z,11.94
2023-04-02T09:26:24.769Z,12.39
2023-04-02T09:29:38.911Z,12.59
2023-04-02T09:32:45.552Z,12.87
2023-04-02T09:35:35.528Z,12.90
2023-04-02T09:38:28.254Z,12.87
2023-04-02T09:41:20.929Z,12.95
2023-04-02T09:44:23.298Z,13.00
2023-04-02T09:47:25.645Z,13.05
2023-04-02T09:50:27.414Z,12.90
2023-04-02T09:53:29.226Z,12.98
2023-04-02T09:56:19.781Z,12.88
2023-04-02T09:59:16.235Z,12.84
2023-04-02T10:02:06.215Z,12.86
2023-04-02T10:04:54.759Z,12.88
2023-04-02T10:07:45.971Z,12.86
2023-04-02T10:10:38.146Z,12.83
2023-04-02T10:13:29.448Z,12.95
2023-04-02T10:16:25.633Z,13.13
2023-04-02T10:19:22.937Z,13.11
2023-04-02T10:22:14.858Z,12.88
2023-04-02T10:25:13.627Z,13.00
2023-04-02T10:28:06.976Z,12.91
2023-04-02T10:31:00.250Z,12.79
2023-04-02T10:33:51.109Z,12.85
2023-04-02T10:36:50.614Z,12.85
2023-04-02T10:39:40.484Z,12.83
2023-04-02T10:42:37.764Z,12.86
2023-04-02T10:45:36.720Z,12.98
2023-04-02T10:48:29.879Z,12.91
2023-04-02T10:51:29.862Z,13.12
2023-04-02T10:54:34.221Z,13.34
2023-04-02T10:57:32.779Z,13.42
2023-04-02T11:00:25.378Z,13.52
2023-04-02T11:03:16.536Z,13.65
2023-04-02T11:06:07.598Z,13.89
2023-04-02T11:08:58.898Z,13.96
2023-04-02T11:11:50.060Z,14.02
2023-04-02T11:14:41.058Z,14.31
2023-04-02T11:17:29.846Z,14.33
2023-04-02T11:20:44.334Z,14.49
2023-04-02T11:23:34.859Z,14.64
2023-04-02T11:26:46.207Z,14.59
2023-04-02T11:29:36.355Z,14.27
2023-04-02T11:32:42.396Z,14.56
2023-04-02T11:35:39.595Z,14.76
2023-04-02T11:38:52.333Z,15.06
2023-04-02T11:42:04.398Z,15.19
2023-04-02T11:44:53.330Z,15.22
2023-04-02T11:47:43.288Z,15.37
2023-04-02T11:50:33.378Z,15.38
2023-04-02T11:53:24.077Z,15.33
2023-04-02T11:56:20.976Z,15.00
2023-04-02T11:59:15.390Z,14.61
2023-04-02T12:02:12.795Z,14.33
2023-04-02T12:05:14.697Z,14.36
2023-04-02T12:08:25.376Z,13.82
2023-04-02T12:11:14.628Z,13.66
2023-04-02T12:14:03.981Z,13.62
2023-04-02T12:16:53.365Z,13.65
2023-04-02T12:19:42.157Z,13.56
2023-04-02T12:22:33.732Z,13.46
2023-04-02T12:25:29.229Z,13.44
2023-04-02T12:28:20.802Z,13.43
2023-04-02T12:31:14.956Z,13.52
2023-04-02T12:34:03.557Z,13.59
2023-04-02T12:36:56.502Z,13.51
2023-04-02T12:39:53.900Z,13.43
2023-04-02T12:42:42.486Z,13.57
2023-04-02T12:45:33.345Z,13.78
2023-04-02T12:48:22.539Z,13.90
2023-04-02T12:51:11.391Z,13.84
2023-04-02T12:53:59.959Z,13.71
2023-04-02T12:56:50.006Z,13.80
2023-04-02T12:59:39.148Z,13.89
2023-04-02T13:02:28.758Z,14.03
2023-04-02T13:05:32.736Z,13.76
2023-04-02T13:08:24.717Z,13.74
2023-04-02T13:11:13.174Z,13.82
2023-04-02T13:14:04.456Z,13.40
2023-04-02T13:16:53.050Z,12.96
2023-04-02T13:19:41.629Z,12.80
2023-04-02T13:22:32.934Z,12.61
2023-04-02T13:25:28.505Z,12.48
2023-04-02T13:28:17.149Z,12.17
2023-04-02T13:31:07.102Z,11.96
2023-04-02T13:33:55.732Z,12.25
2023-04-02T13:36:44.388Z,12.24
2023-04-02T13:39:32.877Z,12.28
2023-04-02T13:42:21.428Z,12.19
2023-04-02T13:45:20.120Z,11.92
2023-04-02T13:48:14.828Z,12.13
2023-04-02T13:51:03.339Z,12.06
2023-04-02T13:53:55.473Z,11.56
2023-04-02T13:56:43.952Z,11.64
2023-04-02T13:59:32.433Z,11.34
2023-04-02T14:02:23.290Z,11.29
2023-04-02T14:05:21.053Z,11.08
2023-04-02T14:08:11.878Z,10.78
2023-04-02T14:11:20.993Z,10.80
2023-04-02T14:14:27.839Z,10.84
2023-04-02T14:17:24.899Z,10.82
2023-04-02T14:20:23.541Z,10.53
2023-04-02T14:23:29.804Z,10.29
2023-04-02T14:26:22.183Z,10.27
2023-04-02T14:29:17.602Z,10.14
2023-04-02T14:32:08.496Z,10.23
2023-04-02T14:35:01.723Z,10.18
2023-04-02T14:37:57.615Z,10.21
2023-04-02T14:40:50.134Z,10.24
2023-04-02T14:43:42.337Z,10.15
2023-04-02T14:46:34.363Z,10.18
2023-04-02T14:49:25.909Z,10.16
2023-04-02T14:52:17.585Z,9.95
2023-04-02T14:55:14.266Z,9.98
2023-04-02T14:58:05.145Z,10.17
2023-04-02T15:00:57.382Z,10.18
2023-04-02T15:03:49.853Z,10.14
2023-04-02T15:06:42.023Z,10.05
2023-04-02T15:09:33.478Z,10.09
2023-04-02T15:12:25.464Z,9.72
2023-04-02T15:15:29.645Z,9.86
2023-04-02T15:18:26.951Z,9.78
2023-04-02T15:21:38.855Z,9.91
2023-04-02T15:24:42.641Z,9.73
2023-04-02T15:27:42.870Z,9.82
2023-04-02T15:30:36.329Z,9.81
2023-04-02T15:33:39.821Z,9.84
2023-04-02T15:37:02.888Z,10.00
2023-04-02T15:40:17.792Z,9.91
2023-04-02T15:43:15.746Z,9.84
2023-04-02T15:46:17.834Z,9.79
2023-04-02T15:49:23.011Z,9.77
2023-04-02T15:52:13.837Z,9.83
2023-04-02T15:55:11.715Z,9.87
2023-04-02T15:58:19.520Z,10.00
2023-04-02T16:01:13.177Z,10.05
2023-04-02T16:04:35.598Z,9.99
2023-04-02T16:07:21.328Z,9.88
2023-04-02T16:09:56.119Z,9.92
2023-04-02T16:12:25.027Z,9.79
2023-04-02T16:14:59.153Z,9.87
2023-04-02T16:17:32.177Z,9.81
2023-04-02T16:20:14.435Z,9.83
2023-04-02T16:22:59.376Z,9.78
2023-04-02T16:25:30.432Z,9.70
2023-04-02T16:28:03.273Z,9.61
2023-04-02T16:30:43.313Z,9.63
2023-04-02T16:33:19.190Z,9.60
2023-04-02T16:35:56.810Z,9.50
2023-04-02T16:38:43.093Z,9.52
2023-04-02T16:41:21.833Z,9.53
2023-04-02T16:43:56.269Z,9.47
2023-04-02T16:46:39.878Z,9.48
2023-04-02T16:49:18.950Z,9.38
2023-04-02T16:51:54.789Z,9.32
2023-04-02T16:54:29.466Z,9.29
2023-04-02T16:57:18.947Z,9.24
2023-04-02T16:59:56.011Z,9.24
2023-04-02T17:02:32.636Z,9.17
2023-04-02T17:05:11.670Z,9.25
2023-04-02T17:07:44.501Z,9.34
2023-04-02T17:10:21.891Z,9.19
2023-04-02T17:12:53.442Z,9.18
2023-04-02T17:15:28.223Z,9.26
2023-04-02T17:18:00.278Z,9.35
2023-04-02T17:20:29.117Z,9.22
2023-04-02T17:22:57.482Z,9.17
2023-04-02T17:25:28.007Z,9.12
2023-04-02T17:27:56.994Z,9.19
2023-04-02T17:30:35.452Z,9.19
2023-04-02T17:33:08.263Z,9.17
2023-04-02T17:35:43.815Z,9.13
2023-04-02T17:38:17.179Z,8.97
2023-04-02T17:40:50.125Z,9.01
2023-04-02T17:43:31.664Z,8.92
2023-04-02T17:46:04.838Z,8.94
2023-04-02T17:48:41.280Z,8.57
2023-04-02T17:51:16.885Z,8.81
2023-04-02T17:53:54.042Z,8.84
2023-04-02T17:56:36.539Z,8.80
2023-04-02T17:59:15.442Z,8.57
2023-04-02T18:01:49.957Z,8.55
2023-04-02T18:04:29.832Z,8.35
2023-04-02T18:07:08.808Z,8.28
2023-04-02T18:09:41.372Z,8.20
2023-04-02T18:12:20.541Z,8.13
2023-04-02T18:15:04.768Z,8.02
2023-04-02T18:17:56.158Z,7.97
2023-04-02T18:20:49.174Z,7.94
2023-04-02T18:23:45.303Z,7.91
2023-04-02T18:26:40.927Z,7.99
2023-04-02T18:29:37.172Z,8.03
2023-04-02T18:32:38.584Z,8.06
2023-04-02T18:35:28.522Z,7.90
2023-04-02T18:38:24.989Z,7.79
2023-04-02T18:41:22.951Z,7.84
2023-04-02T18:44:31.322Z,7.63
2023-04-02T18:47:24.631Z,7.61
2023-04-02T18:50:17.091Z,7.25
2023-04-02T18:53:12.670Z,7.56
2023-04-02T18:56:05.466Z,7.56
2023-04-02T18:58:58.863Z,7.68
2023-04-02T19:01:50.597Z,7.67
2023-04-02T19:04:39.138Z,7.60
2023-04-02T19:07:29.516Z,7.35
2023-04-02T19:10:27.329Z,7.19
2023-04-02T19:13:18.606Z,7.35
2023-04-02T19:16:34.199Z,7.12
2023-04-02T19:19:24.162Z,7.01
2023-04-02T19:22:23.137Z,7.11
2023-04-02T19:25:41.401Z,6.91
2023-04-02T19:28:35.214Z,6.99
2023-04-02T19:31:39.491Z,6.80
2023-04-02T19:34:32.574Z,6.76
2023-04-02T19:37:27.168Z,6.83
2023-04-02T19:40:25.427Z,6.73
2023-04-02T19:43:13.946Z,6.74
2023-04-02T19:46:04.117Z,6.64
2023-04-02T19:48:57.834Z,6.64
2023-04-02T19:51:46.491Z,6.42
2023-04-02T19:54:36.389Z,6.55
2023-04-02T19:57:27.896Z,6.44
2023-04-02T20:00:17.223Z,6.24
2023-04-02T20:03:07.192Z,6.32
2023-04-02T20:05:56.839Z,6.21
2023-04-02T20:08:46.216Z,6.12
2023-04-02T20:11:35.625Z,6.09
2023-04-02T20:14:24.113Z,5.93
2023-04-02T20:17:12.764Z,6.14
2023-04-02T20:20:02.600Z,6.04
2023-04-02T20:22:51.203Z,6.12
2023-04-02T20:25:39.811Z,6.07
2023-04-02T20:28:28.916Z,6.06
2023-04-02T20:31:19.203Z,6.13
2023-04-02T20:34:09.392Z,5.28
2023-04-02T20:36:59.403Z,6.00
2023-04-02T20:39:47.849Z,5.79
2023-04-02T20:42:36.353Z,5.93
2023-04-02T20:45:27.665Z,5.85
2023-04-02T20:48:16.757Z,5.84
2023-04-02T20:51:07.602Z,5.83
2023-04-02T20:53:57.793Z,5.70
2023-04-02T20:56:46.236Z,5.76
2023-04-02T20:59:34.968Z,5.69
2023-04-02T21:02:23.478Z,5.68
2023-04-02T21:05:12.122Z,5.66
2023-04-02T21:08:00.787Z,5.87
2023-04-02T21:10:50.654Z,5.91
2023-04-02T21:13:41.737Z,5.96
2023-04-02T21:16:32.048Z,5.97
2023-04-02T21:19:20.879Z,6.05
2023-04-02T21:22:09.332Z,5.99
2023-04-02T21:24:57.803Z,5.94
2023-04-02T21:27:47.644Z,6.00
2023-04-02T21:30:36.115Z,6.05
2023-04-02T21:33:24.599Z,5.98
2023-04-02T21:36:15.276Z,6.02
2023-04-02T21:39:05.999Z,5.95
2023-04-02T21:41:54.818Z,6.23
2023-04-02T21:44:44.763Z,6.15
2023-04-02T21:47:33.303Z,6.02
2023-04-02T21:50:22.056Z,5.96
2023-04-02T21:53:10.651Z,6.01
2023-04-02T21:56:02.397Z,5.67
2023-04-02T21:58:52.009Z,5.71
2023-04-02T22:01:43.680Z,5.64
2023-04-02T22:04:33.410Z,5.70
2023-04-02T22:07:22.039Z,5.63
2023-04-02T22:10:11.396Z,5.61
2023-04-02T22:12:59.913Z,5.59
2023-04-02T22:15:48.439Z,5.50
2023-04-02T22:18:38.936Z,5.52
2023-04-02T22:21:27.508Z,5.21
2023-04-02T22:24:18.690Z,5.52
2023-04-02T22:27:07.156Z,5.64
2023-04-02T22:29:55.631Z,5.61
2023-04-02T22:32:45.250Z,5.41
2023-04-02T22:35:36.216Z,5.62
2023-04-02T22:38:24.754Z,5.62
2023-04-02T22:41:14.751Z,5.61
2023-04-02T22:44:03.574Z,5.61
2023-04-02T22:46:52.218Z,5.61
2023-04-02T22:49:40.681Z,5.73
2023-04-02T22:52:30.672Z,5.60
2023-04-02T22:55:19.292Z,5.56
2023-04-02T22:58:08.002Z,5.41
2023-04-02T23:00:56.500Z,5.53
2023-04-02T23:03:45.726Z,5.56
2023-04-02T23:06:34.324Z,5.70
2023-04-02T23:09:24.173Z,5.63
2023-04-02T23:12:12.708Z,5.63
2023-04-02T23:15:02.138Z,5.54
2023-04-02T23:17:50.846Z,5.54
2023-04-02T23:20:39.393Z,5.57
2023-04-02T23:23:28.418Z,5.52
2023-04-02T23:26:19.774Z,5.38
2023-04-02T23:29:08.368Z,5.43
2023-04-02T23:31:56.895Z,5.41
2023-04-02T23:34:45.553Z,5.54
2023-04-02T23:37:34.006Z,5.44
2023-04-02T23:40:22.642Z,5.46
2023-04-02T23:43:12.520Z,5.52
2023-04-02T23:46:01.111Z,5.52
2023-04-02T23:48:50.566Z,5.56
2023-04-02T23:51:39.171Z,5.58
2023-04-02T23:54:27.953Z,5.60
2023-04-02T23:57:17.275Z,5.58
